Time;durP1;ratioP1;P1;durP2;ratioP2;P2;SDS_P1;SDS_P2;PMS_P1;PMS_P2;Temp;Humidity;BMP_temperature;BMP_pressure;BME280_temperature;BME280_humidity;BME280_pressure;Samples;Min_cycle;Max_cycle;Signal;HPM_P1;HPM_P2
2023/01/26 00:04:39;;;;;;;90.70;30.70;;;;;;;0.85;100.00;101543.81;5176158;55;1141158;-70
2023/01/26 00:09:45;;;;;;;100.10;33.53;;;;;;;0.87;100.00;101547.25;5196599;55;1141023;-68
2023/01/26 00:14:51;;;;;;;80.97;31.77;;;;;;;0.81;100.00;101523.06;5185218;55;1142911;-71
2023/01/26 00:19:59;;;;;;;78.77;30.57;;;;;;;0.85;100.00;101514.31;5198294;54;1141064;-71
2023/01/26 00:25:05;;;;;;;74.77;27.17;;;;;;;0.87;100.00;101516.44;5295843;54;1140832;-70
2023/01/26 00:30:11;;;;;;;83.15;29.37;;;;;;;0.84;100.00;101517.36;5274907;54;1141010;-68
2023/01/26 00:35:17;;;;;;;75.33;29.77;;;;;;;0.82;100.00;101514.38;5274947;54;1140844;-66
2023/01/26 00:40:23;;;;;;;88.37;32.07;;;;;;;0.85;100.00;101519.08;5295551;54;1140957;-68
2023/01/26 00:45:30;;;;;;;86.73;29.70;;;;;;;0.90;100.00;101517.23;5223547;54;1140800;-72
2023/01/26 00:50:35;;;;;;;93.60;30.90;;;;;;;0.92;100.00;101509.36;5189928;54;1140749;-70
2023/01/26 00:55:42;;;;;;;85.63;31.47;;;;;;;0.93;100.00;101506.73;5219773;54;1140806;-66
2023/01/26 01:00:48;;;;;;;112.15;39.30;;;;;;;0.92;100.00;101502.41;5239848;54;1140809;-69
2023/01/26 01:05:53;;;;;;;90.00;30.67;;;;;;;0.92;100.00;101501.55;5219197;54;1143118;-67
2023/01/26 01:11:08;;;;;;;74.80;26.17;;;;;;;0.90;100.00;101496.84;5219397;54;1141037;-69
2023/01/26 01:16:16;;;;;;;101.63;34.40;;;;;;;0.88;100.00;101504.69;5239919;54;1140921;-68
2023/01/26 01:21:24;;;;;;;83.93;28.50;;;;;;;0.93;100.00;101494.15;5204483;54;1142946;-68
2023/01/26 01:26:31;;;;;;;73.13;26.50;;;;;;;0.99;100.00;101482.30;5185293;55;1140784;-68
2023/01/26 01:31:37;;;;;;;66.07;26.20;;;;;;;1.01;100.00;101479.22;5205509;55;1140976;-70
2023/01/26 01:36:43;;;;;;;77.80;27.67;;;;;;;1.08;100.00;101482.52;5181723;55;1141295;-72
2023/01/26 01:41:49;;;;;;;84.77;26.60;;;;;;;1.05;100.00;101468.70;5180971;55;1140929;-71
2023/01/26 01:47:14;;;;;;;74.20;27.83;;;;;;;0.95;100.00;101465.88;5221746;54;1140984;-67
2023/01/26 01:52:29;;;;;;;78.40;27.87;;;;;;;0.93;100.00;101458.55;5238923;54;1140737;-71
2023/01/26 01:57:50;;;;;;;84.28;29.63;;;;;;;0.92;100.00;101453.37;5285314;54;1141187;-68
2023/01/26 02:03:20;;;;;;;94.13;33.97;;;;;;;0.94;100.00;101441.17;5247277;54;1140836;-71
2023/01/26 02:08:51;;;;;;;81.10;29.00;;;;;;;0.91;100.00;101431.70;5306347;54;1140790;-70
2023/01/26 02:13:58;;;;;;;73.30;26.30;;;;;;;0.84;100.00;101428.82;5285501;54;1141026;-66
2023/01/26 02:19:09;;;;;;;71.87;26.73;;;;;;;0.82;100.00;101421.48;5285527;54;1140964;-69
2023/01/26 02:24:30;;;;;;;148.95;42.55;;;;;;;0.88;100.00;101415.30;5142757;55;1140752;-68
2023/01/26 02:29:36;;;;;;;175.23;52.20;;;;;;;0.95;100.00;101416.40;5108464;56;1143068;-66
2023/01/26 02:34:41;;;;;;;133.50;43.57;;;;;;;0.97;100.00;101410.70;5107927;56;1142908;-68
2023/01/26 02:40:00;;;;;;;107.25;34.58;;;;;;;1.02;100.00;101398.89;5112117;55;1143267;-72
2023/01/26 02:45:08;;;;;;;150.62;47.95;;;;;;;1.07;100.00;101401.39;5229077;54;1143126;-70
2023/01/26 02:50:15;;;;;;;86.57;32.43;;;;;;;1.11;100.00;101399.09;5224840;54;1142934;-70
2023/01/26 02:55:22;;;;;;;83.27;29.90;;;;;;;1.12;100.00;101393.85;5186248;55;1140865;-68
2023/01/26 03:00:33;;;;;;;75.37;26.53;;;;;;;1.09;100.00;101384.80;5174062;55;1140871;-70
2023/01/26 03:05:39;;;;;;;78.47;28.47;;;;;;;1.08;100.00;101388.30;5186069;55;1140832;-68
2023/01/26 03:10:46;;;;;;;76.33;29.03;;;;;;;1.08;100.00;101385.69;5186480;55;1140810;-70
2023/01/26 03:15:53;;;;;;;97.43;33.93;;;;;;;1.08;100.00;101376.58;5206459;55;1140787;-69
2023/01/26 03:31:51;;;;;;;88.40;33.83;;;;;;;1.04;100.00;101364.10;5210061;54;1140945;-70
2023/01/26 03:36:57;;;;;;;75.97;29.67;;;;;;;1.02;100.00;101361.98;5224333;54;1140988;-66
2023/01/26 03:58:18;;;;;;;73.60;28.07;;;;;;;0.93;100.00;101342.66;5107655;55;1140953;-71
2023/01/26 04:08:48;;;;;;;86.20;30.03;;;;;;;0.97;100.00;101341.69;4993690;56;1141073;-69
2023/01/26 04:24:41;;;;;;;96.50;33.33;;;;;;;0.95;100.00;101333.50;5181978;55;1140804;-68
2023/01/26 04:29:47;;;;;;;108.07;38.77;;;;;;;0.98;100.00;101317.80;5181938;55;1140928;-71
2023/01/26 04:34:53;;;;;;;107.17;40.13;;;;;;;1.07;100.00;101320.64;5158519;55;1143040;-69
2023/01/26 04:40:01;;;;;;;98.73;39.03;;;;;;;1.07;100.00;101316.25;5090841;56;1143117;-72
2023/01/26 04:45:10;;;;;;;109.40;38.53;;;;;;;1.05;100.00;101318.92;5096488;55;1140974;-72
2023/01/26 04:50:17;;;;;;;83.97;29.90;;;;;;;1.01;100.00;101319.03;5166373;54;1143082;-70
2023/01/26 04:55:24;;;;;;;72.27;28.90;;;;;;;0.98;100.00;101308.24;5131951;55;1140951;-69
2023/01/26 05:00:30;;;;;;;95.93;31.90;;;;;;;0.99;100.00;101303.89;5108632;55;1140854;-71
2023/01/26 05:05:39;;;;;;;90.03;32.23;;;;;;;0.94;100.00;101300.53;5128893;55;1140947;-68
2023/01/26 05:10:46;;;;;;;88.13;33.13;;;;;;;0.96;100.00;101297.00;5110295;55;1141025;-70
2023/01/26 05:15:56;;;;;;;83.77;33.27;;;;;;;0.93;100.00;101281.90;5133026;54;1140809;-68
2023/01/26 05:21:04;;;;;;;94.20;33.95;;;;;;;0.96;100.00;101276.62;5134578;55;1140967;-71
2023/01/26 05:26:13;;;;;;;111.63;37.30;;;;;;;1.03;100.00;101279.03;5107119;56;1140921;-70
2023/01/26 05:31:20;;;;;;;112.03;38.17;;;;;;;1.08;100.00;101280.20;5156556;55;1143083;-69
2023/01/26 05:36:27;;;;;;;96.57;34.60;;;;;;;1.11;100.00;101278.81;5136016;55;1142864;-66
2023/01/26 05:41:33;;;;;;;105.00;36.95;;;;;;;1.17;100.00;101285.18;5153420;55;1140847;-69
2023/01/26 05:47:01;;;;;;;134.53;44.30;;;;;;;1.20;100.00;101281.20;5192148;55;1142839;-71
2023/01/26 05:52:10;;;;;;;116.23;41.70;;;;;;;1.08;100.00;101284.10;5183065;54;1143107;-69
2023/01/26 05:57:19;;;;;;;105.90;33.40;;;;;;;0.98;100.00;101283.95;5292116;54;1142865;-70
2023/01/26 06:02:29;;;;;;;102.63;33.97;;;;;;;0.94;100.00;101279.70;5181360;54;1143038;-69
2023/01/26 06:07:35;;;;;;;89.17;33.57;;;;;;;0.92;100.00;101278.88;5091004;55;1142968;-70
2023/01/26 06:12:43;;;;;;;119.73;37.50;;;;;;;0.87;100.00;101272.52;5095074;55;1141007;-68
2023/01/26 06:18:01;;;;;;;118.90;37.57;;;;;;;0.85;100.00;101270.84;5125547;56;1143096;-71
2023/01/26 06:23:11;;;;;;;104.83;35.87;;;;;;;0.95;100.00;101275.76;5166195;55;1143137;-68
2023/01/26 06:28:16;;;;;;;121.17;45.03;;;;;;;1.03;100.00;101267.31;5145680;55;1143013;-70
2023/01/26 06:33:22;;;;;;;113.75;38.73;;;;;;;1.12;100.00;101275.77;5185494;55;1142981;-68
2023/01/26 06:38:29;;;;;;;119.87;39.80;;;;;;;1.05;100.00;101286.37;5177737;55;1143053;-70
2023/01/26 06:43:36;;;;;;;124.13;37.70;;;;;;;0.99;100.00;101283.91;5157813;55;1143188;-68
2023/01/26 06:48:43;;;;;;;111.53;37.63;;;;;;;1.01;100.00;101289.08;5140214;55;1142982;-68
2023/01/26 06:53:59;;;;;;;106.63;35.43;;;;;;;1.03;100.00;101288.16;5153332;55;1143159;-66
2023/01/26 06:59:13;;;;;;;123.67;40.20;;;;;;;1.09;100.00;101289.72;5152187;54;1143021;-69
2023/01/26 07:04:38;;;;;;;124.87;41.13;;;;;;;1.12;100.00;101281.83;4890164;58;1143052;-71
2023/01/26 07:09:44;;;;;;;119.50;40.52;;;;;;;1.14;100.00;101287.86;5053883;55;1142976;-67
2023/01/26 07:14:50;;;;;;;118.37;37.27;;;;;;;1.16;100.00;101286.52;5126541;55;1143118;-70
2023/01/26 07:19:56;;;;;;;103.77;35.17;;;;;;;1.17;100.00;101290.84;5151475;54;1143035;-72
2023/01/26 07:25:02;;;;;;;107.87;37.10;;;;;;;1.22;100.00;101285.89;5021658;56;1143249;-69
2023/01/26 07:30:13;;;;;;;124.83;41.97;;;;;;;1.27;100.00;101293.59;5128065;55;1142908;-70
2023/01/26 07:35:18;;;;;;;88.93;31.33;;;;;;;1.28;100.00;101298.77;5126339;55;1153884;-70
2023/01/26 07:40:25;;;;;;;75.70;26.50;;;;;;;1.21;100.00;101285.96;5074707;56;1140834;-71
2023/01/26 07:45:31;;;;;;;92.13;30.97;;;;;;;1.06;100.00;101271.59;5193977;55;1140913;-69
2023/01/26 07:50:37;;;;;;;81.97;31.80;;;;;;;0.96;100.00;101267.50;5121251;55;1140825;-67
2023/01/26 07:55:43;;;;;;;91.90;31.60;;;;;;;0.92;100.00;101270.63;5106028;55;1140865;-68
2023/01/26 08:00:48;;;;;;;94.92;33.90;;;;;;;0.89;100.00;101269.43;5084555;55;1140856;-72
2023/01/26 08:05:54;;;;;;;94.23;31.93;;;;;;;0.85;100.00;101277.34;5142971;55;1140951;-69
2023/01/26 08:11:01;;;;;;;91.10;33.40;;;;;;;0.86;100.00;101279.06;5132609;55;1141064;-67
2023/01/26 08:16:10;;;;;;;93.87;31.93;;;;;;;0.97;100.00;101283.09;5089826;55;1141063;-69
2023/01/26 08:21:18;;;;;;;90.87;36.23;;;;;;;0.97;100.00;101283.09;5124206;55;1150452;-67
2023/01/26 08:26:24;;;;;;;91.37;34.37;;;;;;;1.07;100.00;101282.87;5108410;55;1140766;-67
2023/01/26 08:31:32;;;;;;;83.75;30.77;;;;;;;1.13;100.00;101270.97;5114681;55;1140999;-69
2023/01/26 08:36:39;;;;;;;90.07;29.10;;;;;;;1.18;100.00;101276.47;5131526;55;1141006;-69
2023/01/26 08:41:47;;;;;;;92.27;32.40;;;;;;;1.24;100.00;101271.52;5162045;54;1141051;-71
2023/01/26 08:46:53;;;;;;;85.83;29.37;;;;;;;1.21;100.00;101268.58;5128212;55;1140921;-70
2023/01/26 08:51:58;;;;;;;134.53;46.63;;;;;;;1.16;100.00;101261.77;5214636;55;1140788;-73
2023/01/26 08:57:05;;;;;;;93.83;34.23;;;;;;;1.10;100.00;101272.34;5175874;55;1142898;-72
2023/01/26 09:02:11;;;;;;;99.30;35.70;;;;;;;1.11;100.00;101272.30;5161747;55;1140837;-68
2023/01/26 09:07:17;;;;;;;83.50;26.30;;;;;;;1.13;100.00;101274.42;5189113;55;1140999;-70
2023/01/26 09:12:23;;;;;;;80.50;29.03;;;;;;;1.24;100.00;101271.52;5162304;55;1141063;-68
2023/01/26 09:17:28;;;;;;;83.20;31.03;;;;;;;1.32;100.00;101280.00;5122337;55;1141001;-71
2023/01/26 09:22:35;;;;;;;92.90;32.73;;;;;;;1.36;100.00;101282.49;5186377;55;1140763;-68
2023/01/26 09:27:41;;;;;;;88.50;34.07;;;;;;;1.37;100.00;101288.11;5194811;55;1140737;-68
2023/01/26 09:32:46;;;;;;;82.27;30.53;;;;;;;1.41;100.00;101294.07;5194638;55;1140835;-70
2023/01/26 09:37:52;;;;;;;80.23;31.77;;;;;;;1.47;100.00;101288.70;5152632;55;1141113;-69
2023/01/26 09:43:20;;;;;;;76.83;29.17;;;;;;;1.53;100.00;101287.20;5113362;55;1141062;-67
2023/01/26 09:48:39;;;;;;;84.60;30.05;;;;;;;1.50;100.00;101282.11;5194836;55;1141162;-68
2023/01/26 09:53:52;;;;;;;68.17;26.33;;;;;;;1.51;100.00;101278.61;5125446;55;1140918;-68
2023/01/26 09:59:05;;;;;;;70.15;27.40;;;;;;;1.48;100.00;101267.40;5166763;55;1140786;-68
2023/01/26 10:04:13;;;;;;;;;;;;;;;1.35;100.00;101266.89;5175016;54;1140859;-71
2023/01/26 10:09:25;;;;;;;52.10;18.97;;;;;;;1.24;100.00;101260.66;5192100;54;974062;-68
2023/01/26 10:14:52;;;;;;;57.43;20.33;;;;;;;1.15;100.00;101268.73;5222020;54;1138839;-67
2023/01/26 10:20:11;;;;;;;66.30;21.10;;;;;;;1.14;100.00;101264.86;5235569;54;1140910;-69
2023/01/26 10:25:24;;;;;;;60.67;21.63;;;;;;;1.10;100.00;101260.63;5173801;54;1140953;-73
2023/01/26 10:30:30;;;;;;;53.60;19.48;;;;;;;1.09;100.00;101255.86;5183117;55;1146474;-69
2023/01/26 10:35:35;;;;;;;41.97;18.17;;;;;;;1.10;100.00;101249.75;5145685;55;1140791;-68
2023/01/26 10:40:45;;;;;;;38.93;17.43;;;;;;;1.05;100.00;101234.27;5155905;55;1140904;-69
2023/01/26 10:45:51;;;;;;;42.20;16.25;;;;;;;1.03;100.00;101246.92;5149664;55;1140821;-70
2023/01/26 10:51:01;;;;;;;58.93;23.27;;;;;;;1.07;100.00;101237.28;5174778;55;1140998;-70
2023/01/26 10:56:17;;;;;;;52.90;18.80;;;;;;;1.05;100.00;101226.45;5197815;54;1140892;-68
2023/01/26 11:01:26;;;;;;;45.03;18.90;;;;;;;1.08;100.00;101218.98;5166515;55;1141165;-72
2023/01/26 11:06:31;;;;;;;65.97;24.83;;;;;;;1.04;100.00;101213.47;5107051;55;1140800;-69
2023/01/26 11:11:38;;;;;;;67.73;25.93;;;;;;;1.08;100.00;101215.52;5133502;55;1140765;-69
2023/01/26 11:16:57;;;;;;;55.00;21.43;;;;;;;1.10;100.00;101209.83;5119727;55;1140734;-71
2023/01/26 11:22:29;;;;;;;57.20;22.00;;;;;;;1.13;100.00;101209.30;5127061;55;1140881;-71
2023/01/26 11:27:50;;;;;;;74.67;27.13;;;;;;;1.12;100.00;101205.44;5170135;55;1141027;-73
2023/01/26 11:33:08;;;;;;;68.40;23.97;;;;;;;1.16;100.00;101192.28;5158729;54;1141190;-71
2023/01/26 11:38:37;;;;;;;47.53;17.77;;;;;;;1.17;100.00;101190.09;5124296;54;1141071;-68
2023/01/26 11:44:10;;;;;;;59.83;23.63;;;;;;;1.15;100.00;101187.12;5135134;54;1140944;-70
2023/01/26 11:49:38;;;;;;;53.92;22.17;;;;;;;1.14;100.00;101180.20;5180053;55;1140826;-70
2023/01/26 11:55:06;;;;;;;48.13;20.20;;;;;;;1.15;100.00;101172.79;5167287;55;1140746;-69
2023/01/26 12:00:25;;;;;;;49.27;20.10;;;;;;;1.12;100.00;101162.00;4860207;57;1140845;-71
2023/01/26 12:05:43;;;;;;;56.05;21.95;;;;;;;1.13;100.00;101151.98;5170314;55;1141528;-73
2023/01/26 12:10:57;;;;;;;44.40;18.17;;;;;;;1.22;100.00;101147.80;5118943;55;1140890;-70
2023/01/26 12:16:17;;;;;;;43.67;19.10;;;;;;;1.21;100.00;101142.66;5123220;55;1140832;-70
2023/01/26 12:21:23;;;;;;;35.85;14.85;;;;;;;1.21;100.00;101142.22;5151713;55;1140899;-74
2023/01/26 12:26:33;;;;;;;43.48;15.90;;;;;;;1.24;100.00;101138.20;5112534;55;1140873;-69
2023/01/26 12:31:48;;;;;;;37.37;14.10;;;;;;;1.22;100.00;101141.77;5130702;55;1141060;-68
2023/01/26 12:37:25;;;;;;;64.87;23.73;;;;;;;1.23;100.00;101136.94;5116003;55;1141004;-73
2023/01/26 12:42:59;;;;;;;33.00;15.47;;;;;;;1.28;100.00;101141.13;5153969;54;1141114;-72
2023/01/26 12:48:09;;;;;;;37.48;16.80;;;;;;;1.30;100.00;101141.94;5126754;55;1140953;-72
2023/01/26 12:53:32;;;;;;;38.37;15.23;;;;;;;1.32;100.00;101137.53;5110539;55;1140978;-69
2023/01/26 12:58:44;;;;;;;38.92;14.80;;;;;;;1.32;100.00;101132.77;5155375;55;1140937;-68
2023/01/26 13:04:03;;;;;;;43.30;18.53;;;;;;;1.26;100.00;101132.49;5127711;55;1141041;-69
2023/01/26 13:09:26;;;;;;;33.60;14.30;;;;;;;1.22;100.00;101128.27;5144217;55;1140800;-70
2023/01/26 13:14:45;;;;;;;38.08;16.07;;;;;;;1.24;100.00;101125.61;5155056;55;1140928;-68
2023/01/26 13:20:02;;;;;;;38.00;16.43;;;;;;;1.22;100.00;101118.32;5122871;55;1140921;-70
2023/01/26 13:25:19;;;;;;;41.77;18.07;;;;;;;1.20;100.00;101125.33;5159773;54;1141082;-69
2023/01/26 13:30:30;;;;;;;37.60;17.02;;;;;;;1.25;100.00;101124.72;5216661;54;1140887;-70
2023/01/26 13:35:37;;;;;;;41.70;16.80;;;;;;;1.29;100.00;101136.31;5164579;55;1140974;-70
2023/01/26 13:40:49;;;;;;;32.67;14.80;;;;;;;1.33;100.00;101137.09;5132613;55;1140781;-68
2023/01/26 13:46:24;;;;;;;31.97;13.67;;;;;;;1.32;100.00;101138.84;5170555;54;1141116;-70
2023/01/26 13:51:31;;;;;;;;;;;;;;;1.28;100.00;101143.73;5187917;54;1140819;-71
2023/01/26 13:56:43;;;;;;;32.37;13.47;;;;;;;1.26;100.00;101131.64;5188137;54;973933;-67
2023/01/26 14:01:52;;;;;;;32.50;15.23;;;;;;;1.27;100.00;101128.14;5165594;54;1138756;-69
2023/01/26 14:07:07;;;;;;;52.30;18.20;;;;;;;1.31;100.00;101128.45;5163111;54;1140901;-71
2023/01/26 14:12:24;;;;;;;31.87;14.50;;;;;;;1.30;100.00;101131.96;5190254;54;1140879;-71
2023/01/26 14:17:36;;;;;;;34.35;13.65;;;;;;;1.29;100.00;101130.25;5151539;54;1140999;-70
2023/01/26 14:22:42;;;;;;;29.67;13.20;;;;;;;1.28;100.00;101124.19;5150955;54;1140810;-69
2023/01/26 14:27:50;;;;;;;31.33;13.23;;;;;;;1.30;100.00;101129.35;5122960;55;1141052;-70
2023/01/26 14:33:13;;;;;;;43.03;17.07;;;;;;;1.29;100.00;101127.20;5154335;54;1141068;-68
2023/01/26 14:38:19;;;;;;;51.05;20.50;;;;;;;1.27;100.00;101134.65;5135993;55;1141102;-71
2023/01/26 14:43:28;;;;;;;42.17;18.65;;;;;;;1.21;100.00;101127.03;5120405;54;1140892;-70
2023/01/26 14:48:39;;;;;;;44.85;18.82;;;;;;;1.19;100.00;101132.73;5230119;54;1141232;-69
2023/01/26 14:53:52;;;;;;;70.27;28.27;;;;;;;1.18;100.00;101141.00;5177036;54;1140948;-69
2023/01/26 14:58:57;;;;;;;57.47;22.83;;;;;;;1.19;100.00;101135.34;5157039;55;1140852;-70
2023/01/26 15:04:08;;;;;;;55.03;23.87;;;;;;;1.21;100.00;101137.00;5208965;55;1140840;-70
2023/01/26 15:09:28;;;;;;;43.30;18.50;;;;;;;1.18;100.00;101131.02;5166608;54;1140935;-70
2023/01/26 15:14:41;;;;;;;49.05;22.80;;;;;;;1.21;100.00;101135.70;5167826;54;1141011;-71
2023/01/26 15:19:47;;;;;;;64.50;25.68;;;;;;;1.18;100.00;101133.62;5158318;54;1140923;-71
2023/01/26 15:25:26;;;;;;;61.57;26.50;;;;;;;1.18;100.00;101131.87;5185822;54;1141006;-71
2023/01/26 15:30:37;;;;;;;85.60;34.43;;;;;;;1.21;100.00;101134.84;5157277;54;1140940;-67
2023/01/26 15:35:46;;;;;;;67.92;27.67;;;;;;;1.21;100.00;101121.37;5161061;54;1140955;-68
2023/01/26 15:40:52;;;;;;;70.55;31.10;;;;;;;1.17;100.00;101123.66;5193071;54;1140984;-68
2023/01/26 15:46:00;;;;;;;78.83;31.27;;;;;;;1.17;100.00;101127.56;5171773;54;1141035;-71
2023/01/26 15:51:12;;;;;;;66.60;27.70;;;;;;;1.26;100.00;101131.19;5146949;55;1141017;-68
2023/01/26 15:56:18;;;;;;;63.80;28.13;;;;;;;1.38;100.00;101138.64;5208705;54;1140926;-71
2023/01/26 16:01:24;;;;;;;49.47;23.17;;;;;;;1.45;100.00;101136.72;5230057;55;1143903;-68
2023/01/26 16:06:34;;;;;;;51.10;21.93;;;;;;;1.45;100.00;101137.16;5209450;55;1140770;-70
2023/01/26 16:11:50;;;;;;;62.67;27.63;;;;;;;1.44;100.00;101137.61;5201090;55;1140791;-67
2023/01/26 16:16:56;;;;;;;66.22;29.20;;;;;;;1.46;100.00;101134.96;5083761;56;1140860;-69
2023/01/26 16:22:01;;;;;;;70.53;32.63;;;;;;;1.48;100.00;101132.72;5252466;54;1140796;-69
2023/01/26 16:27:08;;;;;;;66.83;28.63;;;;;;;1.45;100.00;101127.59;5083603;56;1140844;-69
2023/01/26 16:32:29;;;;;;;284.73;135.03;;;;;;;1.43;100.00;101129.39;5125046;55;1140990;-70
2023/01/26 16:37:34;;;;;;;326.00;162.50;;;;;;;1.38;100.00;101127.36;5144379;55;1145027;-69
2023/01/26 16:42:43;;;;;;;95.38;47.80;;;;;;;1.37;100.00;101131.75;5102691;55;1145097;-72
2023/01/26 16:47:55;;;;;;;70.60;31.97;;;;;;;1.31;100.00;101131.06;5194748;54;1140887;-70
2023/01/26 16:53:04;;;;;;;83.10;36.23;;;;;;;1.27;100.00;101132.05;5202096;54;1140878;-70
2023/01/26 16:58:09;;;;;;;83.50;34.33;;;;;;;1.32;100.00;101133.62;5189783;54;1140794;-71
2023/01/26 17:03:15;;;;;;;71.97;30.67;;;;;;;1.39;100.00;101127.77;5203881;54;1140973;-72
2023/01/26 17:08:22;;;;;;;67.47;26.30;;;;;;;1.39;100.00;101135.13;5225476;54;1141099;-70
2023/01/26 17:13:28;;;;;;;68.05;26.25;;;;;;;1.39;100.00;101134.28;5221574;54;1140921;-69
2023/01/26 17:18:34;;;;;;;66.63;26.43;;;;;;;1.44;100.00;101139.36;5189168;54;1140730;-72
2023/01/26 17:23:43;;;;;;;81.23;31.43;;;;;;;1.43;100.00;101147.62;5191545;54;1140823;-68
2023/01/26 17:28:50;;;;;;;91.78;37.28;;;;;;;1.39;100.00;101149.47;5239299;54;1140862;-72
2023/01/26 17:33:56;;;;;;;92.73;36.13;;;;;;;1.40;100.00;101153.78;5243291;54;1141057;-68
2023/01/26 17:39:02;;;;;;;99.93;39.03;;;;;;;1.41;100.00;101141.61;5223477;54;1141015;-69
2023/01/26 17:44:09;;;;;;;111.70;43.40;;;;;;;1.48;100.00;101144.45;5076104;56;1140903;-70
2023/01/26 17:49:15;;;;;;;112.47;45.03;;;;;;;1.49;100.00;101153.97;5231555;54;1142958;-70
2023/01/26 17:54:20;;;;;;;72.03;30.73;;;;;;;1.46;100.00;101149.30;5037049;57;1142889;-68
2023/01/26 17:59:26;;;;;;;60.83;25.07;;;;;;;1.43;100.00;101145.02;5207869;54;1140806;-70
2023/01/26 18:04:32;;;;;;;70.00;28.42;;;;;;;1.43;100.00;101154.15;5248616;54;1140872;-68
2023/01/26 18:09:38;;;;;;;93.13;34.17;;;;;;;1.44;100.00;101155.86;5072336;56;1140851;-70
2023/01/26 18:14:44;;;;;;;79.60;29.55;;;;;;;1.43;100.00;101157.20;5040991;56;1140912;-67
2023/01/26 18:19:49;;;;;;;71.13;26.90;;;;;;;1.47;100.00;101158.38;5089292;56;1140950;-70
2023/01/26 18:24:55;;;;;;;134.23;42.63;;;;;;;1.52;100.00;101168.23;5105006;56;1140819;-71
2023/01/26 18:30:01;;;;;;;106.93;40.73;;;;;;;1.54;100.00;101155.97;5082703;55;1142900;-67
2023/01/26 18:35:08;;;;;;;94.90;37.77;;;;;;;1.55;100.00;101164.64;5034184;56;1142830;-70
2023/01/26 18:40:14;;;;;;;105.47;40.63;;;;;;;1.55;100.00;101170.72;5047784;56;1141064;-68
2023/01/26 18:45:22;;;;;;;105.90;41.57;;;;;;;1.60;100.00;101181.02;5013435;57;1143087;-68
2023/01/26 18:50:28;;;;;;;100.70;39.33;;;;;;;1.62;100.00;101187.04;5202222;55;1143099;-67
2023/01/26 18:55:34;;;;;;;91.20;38.15;;;;;;;1.60;100.00;101192.30;5224439;54;1143008;-69
2023/01/26 19:00:39;;;;;;;125.20;46.92;;;;;;;1.53;100.00;101195.97;5197875;55;1140991;-70
2023/01/26 19:05:46;;;;;;;113.90;46.00;;;;;;;1.51;100.00;101199.09;5167215;55;1142903;-68
2023/01/26 19:10:52;;;;;;;92.07;39.00;;;;;;;1.42;100.00;101187.62;5200875;55;1142994;-68
2023/01/26 19:15:58;;;;;;;90.87;38.73;;;;;;;1.42;100.00;101187.62;5228729;55;1140917;-70
2023/01/26 19:21:05;;;;;;;217.32;128.55;;;;;;;1.48;100.00;101200.94;5146684;55;1140982;-70
2023/01/26 19:26:18;;;;;;;102.80;46.33;;;;;;;1.53;100.00;101186.84;5133012;55;1144993;-69
2023/01/26 19:31:25;;;;;;;132.27;57.27;;;;;;;1.55;100.00;101179.84;5141070;54;1143060;-71
2023/01/26 19:36:48;;;;;;;110.27;44.43;;;;;;;1.55;100.00;101182.89;5125605;55;1143137;-69
2023/01/26 19:41:53;;;;;;;115.97;46.88;;;;;;;1.55;100.00;101176.37;5166204;55;1143093;-68
2023/01/26 19:46:59;;;;;;;125.70;52.38;;;;;;;1.59;100.00;101170.18;5153620;55;1143019;-67
2023/01/26 19:52:05;;;;;;;133.93;57.40;;;;;;;1.59;100.00;101172.34;5178254;54;1143115;-68
2023/01/26 19:57:11;;;;;;;124.17;50.77;;;;;;;1.58;100.00;101169.33;5163977;55;1142874;-70
2023/01/26 20:02:17;;;;;;;145.70;55.70;;;;;;;1.53;100.00;101171.69;5190706;55;1142875;-72
2023/01/26 20:07:26;;;;;;;137.07;51.07;;;;;;;1.49;100.00;101170.92;5127804;55;1142932;-67
2023/01/26 20:12:32;;;;;;;97.95;43.08;;;;;;;1.49;100.00;101174.83;5118085;55;1142965;-66
2023/01/26 20:17:39;;;;;;;92.40;35.20;;;;;;;1.47;100.00;101170.11;5159933;54;1141159;-68
2023/01/26 20:22:45;;;;;;;89.80;35.37;;;;;;;1.37;100.00;101172.59;5157066;55;1140979;-68
2023/01/26 20:27:58;;;;;;;77.55;33.83;;;;;;;1.40;100.00;101175.08;5102326;55;1140895;-68
2023/01/26 20:33:04;;;;;;;78.70;29.77;;;;;;;1.42;100.00;101174.59;5141452;55;1140841;-69
2023/01/26 20:38:12;;;;;;;98.97;35.50;;;;;;;1.40;100.00;101173.78;5098283;55;1140789;-66
2023/01/26 20:43:19;;;;;;;96.17;35.90;;;;;;;1.32;100.00;101167.95;5192998;54;1140744;-70
2023/01/26 20:48:27;;;;;;;66.97;27.67;;;;;;;1.24;100.00;101171.20;5217141;54;1140933;-69
2023/01/26 20:53:48;;;;;;;73.23;30.73;;;;;;;1.23;100.00;101170.36;5257045;54;1140985;-67
2023/01/26 20:58:56;;;;;;;66.95;28.50;;;;;;;1.18;100.00;101172.70;5274676;54;1140848;-67
2023/01/26 21:04:02;;;;;;;76.20;27.50;;;;;;;1.21;100.00;101170.02;5290331;54;1140947;-66
2023/01/26 21:09:07;;;;;;;79.40;33.03;;;;;;;1.16;100.00;101177.10;5270091;54;1141023;-69
2023/01/26 21:14:14;;;;;;;308.43;171.33;;;;;;;1.13;100.00;101182.39;5191158;54;1140812;-69
2023/01/26 21:19:20;;;;;;;391.47;151.33;;;;;;;1.16;100.00;101182.31;5205949;55;1145110;-68
2023/01/26 21:24:30;;;;;;;428.45;152.50;;;;;;;1.24;100.00;101171.20;5242120;54;1150822;-68
2023/01/26 21:29:39;;;;;;;122.33;43.43;;;;;;;1.29;100.00;101166.73;5245757;54;1145047;-70
2023/01/26 21:34:43;;;;;;;476.17;115.60;;;;;;;1.32;100.00;101174.02;5246212;54;1143116;-68
2023/01/26 21:39:51;;;;;;;1224.53;371.10;;;;;;;1.35;100.00;101172.63;5266118;54;1144953;-70
2023/01/26 21:52:56;;;;;;;591.17;282.55;;;;;;;1.31;100.00;101172.31;5196105;54;1145021;-69
2023/01/26 21:55:28;;;;;;;169.22;59.93;;;;;;;1.28;100.00;101168.93;5309244;54;1145055;-68
2023/01/26 22:00:34;;;;;;;99.63;36.67;;;;;;;1.25;100.00;101163.80;5275680;54;1143018;-68
2023/01/26 22:05:41;;;;;;;91.25;31.45;;;;;;;1.21;100.00;101170.02;5278373;54;1140863;-68
2023/01/26 22:10:55;;;;;;;99.00;32.90;;;;;;;1.22;100.00;101173.86;5256821;54;1141052;-67
2023/01/26 22:16:04;;;;;;;64.73;24.57;;;;;;;1.25;100.00;101169.02;5204600;55;1140838;-68
2023/01/26 22:21:11;;;;;;;55.33;22.07;;;;;;;1.22;100.00;101167.82;5206382;54;1140891;-67
2023/01/26 22:26:33;;;;;;;;;;;;;;;1.19;100.00;101171.37;5169966;55;1140854;-69
2023/01/26 22:31:40;;;;;;;82.78;29.80;;;;;;;1.19;100.00;101166.16;5219951;55;974061;-67
2023/01/26 22:36:47;;;;;;;64.43;22.87;;;;;;;1.10;100.00;101162.48;5182980;55;1138718;-69
2023/01/26 22:41:53;;;;;;;73.42;24.40;;;;;;;1.01;100.00;101166.67;5182654;55;1140815;-69
2023/01/26 22:46:59;;;;;;;65.90;25.20;;;;;;;0.92;100.00;101165.16;5281010;54;1140895;-68
2023/01/26 22:52:05;;;;;;;66.03;22.93;;;;;;;0.90;100.00;101160.91;5057196;57;1140782;-69
2023/01/26 22:57:11;;;;;;;60.93;22.43;;;;;;;0.92;100.00;101160.39;5182325;55;1140754;-69
2023/01/26 23:02:17;;;;;;;57.17;20.37;;;;;;;0.90;100.00;101155.70;5202623;55;1140858;-69
2023/01/26 23:07:23;;;;;;;74.10;24.30;;;;;;;0.88;100.00;101141.42;5182433;55;1141186;-68
2023/01/26 23:12:29;;;;;;;61.77;21.97;;;;;;;0.93;100.00;101147.33;5123790;55;1141011;-69
2023/01/26 23:17:35;;;;;;;63.13;24.57;;;;;;;1.00;100.00;101149.33;5123948;55;1140735;-69
2023/01/26 23:22:41;;;;;;;58.17;21.62;;;;;;;0.99;100.00;101152.83;5215653;54;1141011;-66
2023/01/26 23:27:47;;;;;;;62.50;22.23;;;;;;;0.99;100.00;101160.20;5275083;54;1140928;-68
2023/01/26 23:32:54;;;;;;;67.57;22.93;;;;;;;1.05;100.00;101153.53;5275465;54;1140791;-70
2023/01/26 23:38:00;;;;;;;81.90;25.93;;;;;;;1.15;100.00;101157.16;5296055;54;1140914;-67
2023/01/26 23:43:07;;;;;;;80.20;23.63;;;;;;;1.15;100.00;101159.77;5266794;54;1140983;-68